Scranton, South Carolina
Current Conditions -  °F | °C
As of 1:15 AM on Sunday 21 Dec 2014 (Local Time) from KCKI Reporting Station
NA  
Wind Chill: 43°   Ceiling: NA
Heat Index: 43°   Visibility: 7mi
Dew Point: 43°   Wind: 3mph
Humidity: 100%   Direction: 360°N
Pressure: 30.23"   Gusts: NA
Location:  33.92°N, 79.74°W
Report Text: KCKI 210615Z AUTO 36003KT 7SM 06/06 A3023 RMK AO2
Loading
Personal Weather Stations






























Interactive Weather Map New forecast layout! Learn more

10-Day Weather Forecast

Advertisements
Track Severe Weather on mobile